Time;durP1;ratioP1;P1;durP2;ratioP2;P2;SDS_P1;SDS_P2;PMS_P1;PMS_P2;Temp;Humidity;BMP_temperature;BMP_pressure;BME280_temperature;BME280_humidity;BME280_pressure;Samples;Min_cycle;Max_cycle;Signal;HPM_P1;HPM_P2
2024/02/06 00:00:27;;;;;;;2.47;1.80;;;;;;;1.17;100.00;96672.38;4996637;28;20046;-70
2024/02/06 00:02:57;;;;;;;2.77;1.60;;;;;;;1.26;100.00;96681.78;4996506;28;20148;-76
2024/02/06 00:05:25;;;;;;;5.33;2.30;;;;;;;1.15;100.00;96676.16;4964162;28;20072;-75
2024/02/06 00:07:53;;;;;;;7.27;2.40;;;;;;;1.11;100.00;96686.13;4964902;28;20388;-76
2024/02/06 00:10:19;;;;;;;6.07;2.40;;;;;;;1.08;100.00;96685.66;4980275;28;20053;-71
2024/02/06 00:12:46;;;;;;;4.93;2.50;;;;;;;1.13;100.00;96691.19;4964218;28;20456;-70
2024/02/06 00:15:14;;;;;;;4.73;3.10;;;;;;;1.21;100.00;96688.53;4996538;28;20050;-71
2024/02/06 00:17:41;;;;;;;3.67;1.90;;;;;;;1.24;100.00;96701.25;4995981;28;20065;-70
2024/02/06 00:20:09;;;;;;;5.23;2.30;;;;;;;1.31;100.00;96691.72;4979562;28;20052;-70
2024/02/06 00:22:35;;;;;;;6.10;2.27;;;;;;;1.32;100.00;96696.00;4976452;28;20057;-71
2024/02/06 00:25:01;;;;;;;4.13;2.40;;;;;;;1.31;100.00;96705.63;4944607;28;20408;-70
2024/02/06 00:27:30;;;;;;;3.40;2.20;;;;;;;1.35;100.00;96693.03;5007000;28;20077;-71
2024/02/06 00:29:56;;;;;;;6.13;2.33;;;;;;;1.35;100.00;96698.25;4981924;28;20053;-71
2024/02/06 00:32:25;;;;;;;5.50;2.63;;;;;;;1.37;100.00;96706.72;4979641;28;20519;-70
2024/02/06 00:34:56;;;;;;;3.37;2.10;;;;;;;1.30;100.00;96703.19;4963559;28;20060;-70
2024/02/06 00:37:23;;;;;;;;;;;;;;;1.49;100.00;96713.22;4980880;28;20065;-71
2024/02/06 00:39:50;;;;;;;4.97;2.30;;;;;;;1.27;100.00;96709.59;4993818;28;20127;-71
2024/02/06 00:42:16;;;;;;;3.13;1.93;;;;;;;1.27;100.00;96714.81;4963988;28;20172;-71
2024/02/06 00:44:45;;;;;;;8.03;2.67;;;;;;;1.37;100.00;96710.16;4964713;28;20456;-71
2024/02/06 00:47:14;;;;;;;4.07;1.90;;;;;;;1.23;100.00;96704.88;4946220;28;20057;-70
2024/02/06 00:49:40;;;;;;;5.40;2.20;;;;;;;1.18;100.00;96717.63;4960554;28;20057;-72
2024/02/06 00:52:06;;;;;;;5.83;2.10;;;;;;;1.21;100.00;96719.91;4945181;28;20053;-71
2024/02/06 00:54:34;;;;;;;3.77;2.00;;;;;;;1.27;100.00;96724.44;4994361;28;20049;-71
2024/02/06 00:57:01;;;;;;;1.90;1.60;;;;;;;1.33;100.00;96726.38;5009875;28;20058;-71
2024/02/06 00:59:28;;;;;;;5.40;2.20;;;;;;;1.31;100.00;96731.75;4980141;28;20504;-71
2024/02/06 01:01:54;;;;;;;3.83;1.90;;;;;;;1.36;100.00;96732.06;4963755;28;20087;-71
2024/02/06 01:04:25;;;;;;;4.43;2.40;;;;;;;1.35;100.00;96735.66;4980455;28;20057;-70
2024/02/06 01:06:51;;;;;;;7.00;2.77;;;;;;;1.36;100.00;96734.69;4975471;28;20057;-70
2024/02/06 01:09:21;;;;;;;4.27;1.93;;;;;;;1.44;100.00;96728.59;5019388;28;20600;-72
2024/02/06 01:11:47;;;;;;;2.90;1.98;;;;;;;1.36;100.00;96732.06;5034433;28;20053;-71
2024/02/06 01:14:13;;;;;;;5.47;2.37;;;;;;;1.37;100.00;96740.72;5002302;28;20052;-70
2024/02/06 01:16:39;;;;;;;5.93;1.77;;;;;;;1.44;100.00;96744.28;5018094;28;20502;-70
2024/02/06 01:19:08;;;;;;;5.83;2.03;;;;;;;1.42;100.00;96746.25;5015159;28;20049;-70
2024/02/06 01:21:35;;;;;;;5.30;1.67;;;;;;;1.49;100.00;96745.38;5014598;28;20045;-70
2024/02/06 01:24:09;;;;;;;4.80;2.03;;;;;;;1.42;100.00;96754.91;5014836;28;20147;-70
2024/02/06 01:26:38;;;;;;;2.35;1.70;;;;;;;1.36;100.00;96752.16;5014694;28;20061;-71
2024/02/06 01:29:04;;;;;;;3.63;1.70;;;;;;;1.36;100.00;96757.38;5010628;28;20461;-73
2024/02/06 01:31:31;;;;;;;2.97;1.83;;;;;;;1.44;100.00;96758.19;4978599;28;20064;-70
2024/02/06 01:33:56;;;;;;;3.53;2.00;;;;;;;1.45;100.00;96761.59;4995198;28;20046;-70
2024/02/06 01:36:24;;;;;;;6.87;2.33;;;;;;;1.42;100.00;96764.53;4978326;28;20563;-71
2024/02/06 01:38:50;;;;;;;4.43;2.33;;;;;;;1.44;100.00;96760.78;4995128;28;20058;-71
2024/02/06 01:41:17;;;;;;;5.80;1.93;;;;;;;1.44;100.00;96766.03;4980439;28;20052;-69
2024/02/06 01:43:43;;;;;;;3.93;2.00;;;;;;;1.44;100.00;96770.44;4997835;28;20058;-69
2024/02/06 01:46:09;;;;;;;3.33;1.67;;;;;;;1.47;100.00;96773.53;4981963;28;20069;-69
2024/02/06 01:48:38;;;;;;;4.17;2.00;;;;;;;1.53;100.00;96785.09;4995067;28;20060;-69
2024/02/06 01:51:06;;;;;;;5.97;2.50;;;;;;;1.45;100.00;96778.09;4973298;28;20055;-69
2024/02/06 01:53:32;;;;;;;4.03;2.00;;;;;;;1.47;100.00;96780.53;4941114;28;20066;-69
2024/02/06 01:56:01;;;;;;;6.00;2.30;;;;;;;1.55;100.00;96783.91;4956538;28;20062;-69
2024/02/06 01:58:28;;;;;;;3.93;2.40;;;;;;;1.43;100.00;96769.59;4918103;29;20110;-69
2024/02/06 02:00:58;;;;;;;3.60;2.00;;;;;;;1.52;100.00;96783.47;4906312;28;20047;-69
2024/02/06 02:03:26;;;;;;;8.30;2.63;;;;;;;1.43;100.00;96784.50;4955403;28;20062;-69
2024/02/06 02:05:52;;;;;;;4.53;2.00;;;;;;;1.39;100.00;96785.81;4923548;28;20050;-69
2024/02/06 02:08:19;;;;;;;4.43;2.10;;;;;;;1.45;100.00;96783.31;4940168;28;20122;-68
2024/02/06 02:10:48;;;;;;;4.87;2.10;;;;;;;1.43;100.00;96790.53;4957057;28;20051;-69
2024/02/06 02:13:18;;;;;;;4.47;2.13;;;;;;;1.29;100.00;96798.28;4956867;28;20146;-69
2024/02/06 02:15:44;;;;;;;4.77;2.00;;;;;;;1.29;100.00;96799.06;4974499;28;20081;-70
2024/02/06 02:18:10;;;;;;;4.67;2.00;;;;;;;1.24;100.00;96800.56;4974210;28;20058;-70
2024/02/06 02:20:36;;;;;;;8.37;2.80;;;;;;;1.22;100.00;96799.91;4975289;28;20137;-70
2024/02/06 02:23:03;;;;;;;3.70;1.80;;;;;;;1.27;100.00;96815.91;4975355;28;20078;-71
2024/02/06 02:25:32;;;;;;;4.30;1.70;;;;;;;1.37;100.00;96808.69;4960008;28;20460;-70
2024/02/06 02:27:58;;;;;;;3.07;1.70;;;;;;;1.32;100.00;96811.81;4967998;28;20099;-70
2024/02/06 02:30:25;;;;;;;2.90;1.43;;;;;;;1.34;100.00;96812.47;5013822;28;20642;-70
2024/02/06 02:32:53;;;;;;;3.93;1.53;;;;;;;1.41;100.00;96812.59;4997093;28;20156;-71
2024/02/06 02:35:20;;;;;;;5.37;2.30;;;;;;;1.33;100.00;96812.63;4997456;28;20491;-71
2024/02/06 02:37:46;;;;;;;2.77;1.70;;;;;;;1.42;100.00;96816.84;5013842;28;20053;-69
2024/02/06 02:40:17;;;;;;;3.70;2.07;;;;;;;1.37;100.00;96821.75;5030283;28;20060;-70
2024/02/06 02:42:48;;;;;;;3.07;1.83;;;;;;;1.31;100.00;96823.25;5014160;28;20309;-70
2024/02/06 02:45:16;;;;;;;4.07;2.20;;;;;;;1.32;100.00;96819.66;5012989;28;20057;-70
2024/02/06 02:47:44;;;;;;;3.53;1.93;;;;;;;1.42;100.00;96825.50;4998628;28;20100;-72
2024/02/06 02:50:12;;;;;;;4.43;2.13;;;;;;;1.30;100.00;96820.81;5030613;28;20102;-70
2024/02/06 02:52:38;;;;;;;3.53;2.37;;;;;;;1.26;100.00;96825.56;4993341;28;20045;-70
2024/02/06 02:55:06;;;;;;;5.53;2.10;;;;;;;1.23;100.00;96831.13;4977745;28;20115;-71
2024/02/06 02:57:33;;;;;;;3.37;2.03;;;;;;;1.21;100.00;96829.66;4993838;28;20053;-75
2024/02/06 02:59:59;;;;;;;7.50;2.30;;;;;;;1.20;100.00;96835.88;4993845;28;20107;-70
2024/02/06 03:02:24;;;;;;;4.40;2.27;;;;;;;1.06;100.00;96829.53;4977372;28;20085;-70
2024/02/06 03:04:51;;;;;;;3.57;2.10;;;;;;;1.08;100.00;96824.13;4993540;28;20512;-70
2024/02/06 03:07:19;;;;;;;5.10;2.10;;;;;;;1.03;100.00;96831.69;4993505;28;20149;-70
2024/02/06 03:09:47;;;;;;;4.40;1.80;;;;;;;1.02;100.00;96825.63;4961371;28;20091;-70
2024/02/06 03:12:18;;;;;;;3.13;1.90;;;;;;;0.94;100.00;96827.47;5014056;28;20080;-70
2024/02/06 03:14:44;;;;;;;3.05;1.90;;;;;;;0.94;100.00;96835.31;4996640;28;20423;-70
2024/02/06 03:17:10;;;;;;;5.17;2.10;;;;;;;0.93;100.00;96834.47;4980477;28;20045;-70
2024/02/06 03:19:40;;;;;;;7.63;2.30;;;;;;;0.89;100.00;96842.81;4981058;28;20111;-71
2024/02/06 03:22:06;;;;;;;2.03;1.83;;;;;;;0.89;100.00;96838.38;4978587;28;20136;-73
2024/02/06 03:24:32;;;;;;;2.73;1.80;;;;;;;0.85;100.00;96838.88;4979582;28;20144;-70
2024/02/06 03:27:03;;;;;;;5.97;2.20;;;;;;;0.78;100.00;96843.16;4997892;28;20041;-70
2024/02/06 03:29:30;;;;;;;4.63;1.90;;;;;;;0.86;100.00;96851.78;5017885;28;20076;-71
2024/02/06 03:31:56;;;;;;;2.77;1.80;;;;;;;0.88;100.00;96859.44;5005928;28;20037;-71
2024/02/06 03:34:22;;;;;;;2.97;1.93;;;;;;;0.90;100.00;96854.88;5033983;28;20495;-69
2024/02/06 03:36:48;;;;;;;4.03;2.00;;;;;;;0.85;100.00;96855.38;5017189;28;20056;-70
2024/02/06 03:39:16;;;;;;;5.90;2.20;;;;;;;0.90;100.00;96854.88;5033908;28;20041;-70
2024/02/06 03:41:42;;;;;;;4.57;2.13;;;;;;;0.87;100.00;96865.66;4999539;28;20057;-70
2024/02/06 03:44:08;;;;;;;4.97;2.13;;;;;;;0.89;100.00;96858.50;5016728;28;20073;-71
2024/02/06 03:46:36;;;;;;;2.57;1.90;;;;;;;0.96;100.00;96854.22;5015549;28;20046;-73
2024/02/06 03:49:02;;;;;;;1.93;1.50;;;;;;;0.95;100.00;96855.22;4977621;28;20053;-69
2024/02/06 03:51:28;;;;;;;5.30;2.00;;;;;;;0.96;100.00;96856.84;4995275;28;20056;-69
2024/02/06 03:53:55;;;;;;;3.23;1.97;;;;;;;0.98;100.00;96855.69;4991231;28;20137;-70
2024/02/06 03:56:20;;;;;;;2.23;1.80;;;;;;;1.01;100.00;96857.16;4998664;28;20142;-70
2024/02/06 03:58:46;;;;;;;2.13;1.87;;;;;;;1.01;100.00;96857.16;4962585;28;20090;-70
2024/02/06 04:01:12;;;;;;;3.53;1.90;;;;;;;1.04;100.00;96851.59;4979639;28;20038;-68
2024/02/06 04:03:38;;;;;;;2.73;2.20;;;;;;;1.07;100.00;96854.69;4972184;28;20106;-69
2024/02/06 04:06:07;;;;;;;3.40;1.80;;;;;;;1.07;100.00;96846.03;4975006;28;20069;-68
2024/02/06 04:08:33;;;;;;;2.83;1.70;;;;;;;1.05;100.00;96845.38;5022250;28;20045;-69
2024/02/06 04:11:00;;;;;;;2.33;1.70;;;;;;;1.05;100.00;96850.59;4974701;28;20049;-68
2024/02/06 04:13:26;;;;;;;2.77;1.87;;;;;;;1.00;100.00;96855.53;5040925;28;20076;-68
2024/02/06 04:15:52;;;;;;;5.73;2.73;;;;;;;0.93;100.00;96860.59;4994065;28;20202;-70
2024/02/06 04:18:19;;;;;;;4.03;2.73;;;;;;;0.90;100.00;96862.72;5003102;28;20048;-71
2024/02/06 04:20:46;;;;;;;4.00;2.37;;;;;;;0.87;100.00;96863.88;4981254;28;20468;-72
2024/02/06 04:23:11;;;;;;;7.07;2.70;;;;;;;0.81;100.00;96863.72;4999207;28;20148;-70
2024/02/06 04:26:00;;;;;;;5.00;2.60;;;;;;;1.03;100.00;96870.88;4989356;28;20053;-71
2024/02/06 04:28:39;;;;;;;3.67;2.30;;;;;;;0.97;100.00;96867.09;5001486;28;20053;-70
2024/02/06 04:31:06;;;;;;;2.57;2.00;;;;;;;0.98;100.00;96876.59;5010207;28;20050;-75
2024/02/06 04:33:32;;;;;;;4.30;2.50;;;;;;;1.03;100.00;96870.88;4995317;28;20455;-69
2024/02/06 04:35:58;;;;;;;4.43;2.50;;;;;;;1.02;100.00;96872.66;5011725;28;20078;-69
2024/02/06 04:38:26;;;;;;;4.87;2.30;;;;;;;1.08;100.00;96882.44;4975987;28;20646;-69
2024/02/06 04:40:54;;;;;;;3.60;2.30;;;;;;;1.07;100.00;96882.63;4942773;28;20046;-71
2024/02/06 04:43:31;;;;;;;4.47;2.60;;;;;;;1.22;100.00;96888.78;4940432;28;20082;-70
2024/02/06 04:45:58;;;;;;;5.90;2.97;;;;;;;1.02;100.00;96884.91;4970608;28;20244;-70
2024/02/06 04:48:29;;;;;;;4.90;3.13;;;;;;;1.14;100.00;96889.63;4978622;28;20480;-69
2024/02/06 04:51:01;;;;;;;;;;;;;;;1.26;100.00;96883.06;4975989;28;20105;-70
2024/02/06 04:53:31;;;;;;;4.25;2.92;;;;;;;1.11;100.00;96886.50;4926485;28;19968;-69
2024/02/06 04:56:14;;;;;;;4.63;2.57;;;;;;;1.14;100.00;96878.34;4960574;28;20098;-69
2024/02/06 04:59:07;;;;;;;4.37;2.80;;;;;;;1.10;100.00;96877.06;4976777;28;20181;-69
2024/02/06 05:01:45;;;;;;;4.43;2.70;;;;;;;1.16;100.00;96881.63;4970224;28;20078;-71
2024/02/06 05:04:13;;;;;;;9.20;3.20;;;;;;;1.08;100.00;96885.06;4941007;28;20066;-70
2024/02/06 05:06:39;;;;;;;6.97;3.40;;;;;;;1.02;100.00;96874.44;4939976;28;20145;-69
2024/02/06 05:09:06;;;;;;;5.20;3.23;;;;;;;0.94;100.00;96892.78;4954316;28;20477;-69
2024/02/06 05:11:32;;;;;;;4.60;3.10;;;;;;;0.95;100.00;96882.16;4976506;28;20493;-70
2024/02/06 05:13:58;;;;;;;4.73;2.80;;;;;;;1.01;100.00;96884.09;4978516;28;20077;-73
2024/02/06 05:16:25;;;;;;;4.30;2.70;;;;;;;1.03;100.00;96889.16;4984459;28;20057;-73
2024/02/06 05:18:52;;;;;;;6.60;3.47;;;;;;;0.96;100.00;96880.34;4940038;28;20065;-73
2024/02/06 05:21:18;;;;;;;2.70;2.30;;;;;;;0.94;100.00;96885.72;4962333;28;20049;-72
2024/02/06 05:23:45;;;;;;;3.77;2.53;;;;;;;1.01;100.00;96884.09;4976515;28;20049;-73
2024/02/06 05:26:12;;;;;;;6.97;2.37;;;;;;;0.97;100.00;96874.94;4946256;28;20073;-73
2024/02/06 05:28:42;;;;;;;3.67;2.43;;;;;;;1.08;100.00;96885.06;4962366;28;20037;-73
2024/02/06 05:31:09;;;;;;;4.28;1.92;;;;;;;1.02;100.00;96884.91;4962388;28;20081;-73
2024/02/06 05:33:35;;;;;;;3.30;2.20;;;;;;;1.05;100.00;96881.97;4978702;28;20065;-73
2024/02/06 05:36:01;;;;;;;3.53;2.33;;;;;;;1.05;100.00;96885.41;4977833;28;20468;-73
2024/02/06 05:38:28;;;;;;;3.37;2.27;;;;;;;1.08;100.00;96886.84;4994076;28;20487;-73
2024/02/06 05:40:54;;;;;;;3.50;2.30;;;;;;;1.04;100.00;96886.38;4980666;28;20669;-73
2024/02/06 05:43:20;;;;;;;4.10;2.80;;;;;;;1.04;100.00;96891.63;5013463;28;20136;-72
2024/02/06 05:45:47;;;;;;;3.73;2.37;;;;;;;1.06;100.00;96892.25;5013376;28;20041;-73
2024/02/06 05:48:13;;;;;;;6.60;2.70;;;;;;;1.08;100.00;96894.69;4998199;28;20053;-73
2024/02/06 05:50:39;;;;;;;6.60;2.77;;;;;;;1.04;100.00;96889.00;4998063;28;20041;-73
2024/02/06 05:53:05;;;;;;;4.83;2.70;;;;;;;1.03;100.00;96892.56;5014601;28;20037;-75
2024/02/06 05:55:31;;;;;;;5.87;2.80;;;;;;;1.06;100.00;96894.84;4982526;28;20041;-75
2024/02/06 05:57:56;;;;;;;6.00;2.90;;;;;;;0.98;100.00;96891.44;5014396;28;20113;-78
2024/02/06 06:00:26;;;;;;;4.17;2.77;;;;;;;1.01;100.00;96894.56;5015822;28;20096;-75
2024/02/06 06:02:53;;;;;;;5.90;2.80;;;;;;;1.01;100.00;96901.56;5016421;28;20041;-73
2024/02/06 06:05:22;;;;;;;7.07;2.77;;;;;;;1.10;100.00;96903.19;5015845;28;20597;-74
2024/02/06 06:07:47;;;;;;;4.67;2.93;;;;;;;0.99;100.00;96896.50;5032167;28;20049;-76
2024/02/06 06:10:14;;;;;;;6.00;2.50;;;;;;;1.00;100.00;96897.34;4998581;28;20041;-74
2024/02/06 06:12:40;;;;;;;4.33;2.90;;;;;;;1.00;100.00;96899.94;5031081;28;20056;-68
2024/02/06 06:15:06;;;;;;;4.50;2.60;;;;;;;1.06;100.00;96909.75;5030364;28;20053;-76
2024/02/06 06:17:32;;;;;;;8.47;2.90;;;;;;;1.10;100.00;96903.19;5017803;28;20055;-75
2024/02/06 06:19:57;;;;;;;6.47;3.13;;;;;;;1.06;100.00;96894.84;5017321;28;20033;-75
2024/02/06 06:22:23;;;;;;;4.60;3.00;;;;;;;1.10;100.00;96903.19;5052618;28;20064;-73
2024/02/06 06:24:49;;;;;;;6.13;2.70;;;;;;;1.07;100.00;96904.34;5032135;28;20044;-74
2024/02/06 06:27:15;;;;;;;6.17;2.37;;;;;;;1.13;100.00;96903.69;5031901;28;20045;-75
2024/02/06 06:29:42;;;;;;;5.50;2.50;;;;;;;1.19;100.00;96904.81;5048191;28;20364;-71
2024/02/06 06:32:07;;;;;;;4.77;2.50;;;;;;;1.11;100.00;96904.81;5031503;28;20163;-74
2024/02/06 06:34:34;;;;;;;4.53;2.63;;;;;;;1.15;100.00;96903.50;5032066;28;20048;-74
2024/02/06 06:36:59;;;;;;;5.33;2.40;;;;;;;1.20;100.00;96909.88;5048632;28;20045;-76
2024/02/06 06:39:25;;;;;;;6.53;2.77;;;;;;;1.20;100.00;96916.91;5039499;28;20040;-77
2024/02/06 06:41:53;;;;;;;4.20;2.07;;;;;;;1.25;100.00;96906.75;5066332;28;20072;-74
2024/02/06 06:44:18;;;;;;;4.80;2.50;;;;;;;1.27;100.00;96915.25;5064300;28;20079;-76
2024/02/06 06:46:46;;;;;;;4.07;2.00;;;;;;;1.36;100.00;96917.69;5062698;28;20053;-72
2024/02/06 06:49:12;;;;;;;4.87;2.10;;;;;;;1.37;100.00;96918.47;5054019;28;20047;-75
2024/02/06 06:51:38;;;;;;;8.87;3.03;;;;;;;1.39;100.00;96919.13;5052215;28;20139;-75
2024/02/06 06:54:04;;;;;;;3.57;2.00;;;;;;;1.45;100.00;96931.53;5001469;28;20091;-76
2024/02/06 06:56:30;;;;;;;3.20;2.10;;;;;;;1.57;100.00;96922.34;5051300;28;20467;-77
2024/02/06 06:58:56;;;;;;;3.60;2.17;;;;;;;1.52;100.00;96924.66;5034454;28;20041;-75
2024/02/06 07:01:22;;;;;;;5.93;3.07;;;;;;;1.52;100.00;96929.91;5039907;28;20078;-75
2024/02/06 07:03:47;;;;;;;3.53;2.47;;;;;;;1.53;100.00;96927.13;5068359;28;20041;-73
2024/02/06 07:06:13;;;;;;;4.23;2.60;;;;;;;1.61;100.00;96934.91;5071519;28;20087;-72
2024/02/06 07:08:39;;;;;;;2.90;2.40;;;;;;;1.63;100.00;96938.19;5054602;28;20067;-75
2024/02/06 07:11:06;;;;;;;4.27;2.90;;;;;;;1.63;100.00;96927.72;5070146;28;20062;-75
2024/02/06 07:13:32;;;;;;;3.93;2.77;;;;;;;1.74;100.00;96926.53;5070440;28;20327;-75
2024/02/06 07:15:57;;;;;;;5.20;2.40;;;;;;;1.91;100.00;96927.31;5011157;28;20049;-76
2024/02/06 07:18:23;;;;;;;4.20;2.50;;;;;;;2.05;100.00;96927.41;5020772;28;20369;-73
2024/02/06 07:20:49;;;;;;;4.23;2.43;;;;;;;2.16;100.00;96936.66;5045230;28;20111;-75
2024/02/06 07:23:15;;;;;;;3.87;2.13;;;;;;;2.22;100.00;96933.34;5032472;28;20109;-72
2024/02/06 07:25:40;;;;;;;2.97;2.30;;;;;;;2.27;100.00;96929.25;5052701;28;20073;-75
2024/02/06 07:28:06;;;;;;;3.47;2.10;;;;;;;2.27;100.00;96938.91;5027509;28;20468;-75
2024/02/06 07:30:32;;;;;;;4.57;2.37;;;;;;;2.13;100.00;96929.97;5024247;28;20304;-70
2024/02/06 07:32:58;;;;;;;4.90;1.93;;;;;;;2.15;100.00;96938.47;5039735;28;20041;-70
2024/02/06 07:35:24;;;;;;;3.00;1.93;;;;;;;2.20;100.00;96925.66;5037481;28;20482;-68
2024/02/06 07:37:50;;;;;;;2.13;1.70;;;;;;;2.28;100.00;96925.63;4999804;28;20491;-67
2024/02/06 07:40:16;;;;;;;2.00;1.63;;;;;;;2.41;100.00;96936.38;5016257;28;20049;-70
2024/02/06 07:42:42;;;;;;;2.60;1.83;;;;;;;2.55;100.00;96937.44;5016565;28;20483;-69
2024/02/06 07:45:08;;;;;;;2.83;1.70;;;;;;;2.65;100.00;96933.59;5016241;28;20041;-70
2024/02/06 07:47:34;;;;;;;3.13;1.40;;;;;;;2.73;100.00;96938.78;5049668;28;20121;-68
2024/02/06 07:50:00;;;;;;;3.20;1.50;;;;;;;2.77;100.00;96940.03;5035758;28;20091;-68
2024/02/06 07:52:26;;;;;;;2.80;1.47;;;;;;;2.74;100.00;96943.00;5052614;28;20056;-68
2024/02/06 07:54:52;;;;;;;2.57;1.80;;;;;;;2.57;100.00;96949.34;5053533;28;20079;-67
2024/02/06 07:57:17;;;;;;;2.40;1.60;;;;;;;2.38;100.00;96955.06;5054114;28;20080;-67
2024/02/06 07:59:43;;;;;;;3.50;1.73;;;;;;;2.42;100.00;96961.56;5037006;28;20471;-67
2024/02/06 08:02:11;;;;;;;2.27;1.27;;;;;;;2.46;100.00;96952.38;5020277;28;20467;-69
2024/02/06 08:04:37;;;;;;;2.43;1.50;;;;;;;2.54;100.00;96954.94;5053182;28;20040;-69
2024/02/06 08:07:03;;;;;;;1.90;1.70;;;;;;;2.53;100.00;96961.19;5036274;28;20080;-68
2024/02/06 08:09:29;;;;;;;1.63;1.50;;;;;;;2.61;100.00;96958.50;5053083;28;20082;-68
2024/02/06 08:11:55;;;;;;;2.37;1.57;;;;;;;2.72;100.00;96978.25;5035611;28;20037;-67
2024/02/06 08:14:21;;;;;;;2.10;1.50;;;;;;;3.05;100.00;96980.47;5014698;28;20053;-68
2024/02/06 08:16:47;;;;;;;1.77;1.67;;;;;;;3.34;100.00;96974.47;4982308;28;20506;-67
2024/02/06 08:19:13;;;;;;;3.87;1.90;;;;;;;4.00;100.00;96982.31;5014770;28;20080;-68
2024/02/06 08:21:40;;;;;;;2.13;1.70;;;;;;;4.53;100.00;96979.38;4982674;28;20064;-68
2024/02/06 08:24:06;;;;;;;5.53;1.73;;;;;;;5.05;100.00;96985.16;4998051;28;20056;-67
2024/02/06 08:26:32;;;;;;;3.77;1.70;;;;;;;4.91;100.00;96972.88;5030735;28;20544;-67
2024/02/06 08:28:57;;;;;;;1.70;1.33;;;;;;;4.73;100.00;96975.13;5030238;28;20057;-67
2024/02/06 08:31:23;;;;;;;1.80;1.70;;;;;;;4.51;100.00;96980.53;5030681;28;20045;-66
2024/02/06 08:33:50;;;;;;;1.80;1.60;;;;;;;4.24;100.00;96992.56;5030953;28;20050;-69
2024/02/06 08:36:17;;;;;;;2.03;1.50;;;;;;;4.07;100.00;96993.75;5014696;28;20461;-67
2024/02/06 08:38:44;;;;;;;3.43;1.50;;;;;;;3.87;100.00;97003.16;4998328;28;20395;-67
2024/02/06 08:41:09;;;;;;;4.30;1.90;;;;;;;3.87;100.00;96992.66;4981663;28;20078;-67
2024/02/06 08:43:36;;;;;;;6.93;1.53;;;;;;;3.74;100.00;96995.06;4966176;28;20045;-67
2024/02/06 08:46:02;;;;;;;1.87;1.53;;;;;;;3.45;100.00;97000.28;5043964;28;20053;-67
2024/02/06 08:48:28;;;;;;;2.47;1.37;;;;;;;3.30;100.00;96984.53;5019116;28;20049;-67
2024/02/06 08:50:57;;;;;;;3.10;1.80;;;;;;;3.28;100.00;96981.25;5052495;28;20048;-67
2024/02/06 08:53:22;;;;;;;3.07;1.30;;;;;;;3.19;100.00;96981.50;5052391;28;20072;-66
2024/02/06 08:55:48;;;;;;;1.83;1.40;;;;;;;3.18;100.00;96983.28;5051432;28;20137;-66
2024/02/06 08:58:14;;;;;;;1.73;1.33;;;;;;;3.20;100.00;96993.59;5035099;28;20206;-67
2024/02/06 09:00:40;;;;;;;2.47;1.50;;;;;;;3.14;100.00;96989.88;5035018;28;20052;-67
2024/02/06 09:03:07;;;;;;;1.87;1.53;;;;;;;3.08;100.00;96990.59;5050903;28;20040;-67
2024/02/06 09:05:33;;;;;;;2.60;1.47;;;;;;;3.11;100.00;96990.25;5051131;28;20049;-67
2024/02/06 09:07:59;;;;;;;2.17;1.90;;;;;;;3.09;100.00;96988.78;5051246;28;20100;-67
2024/02/06 09:10:25;;;;;;;2.70;1.50;;;;;;;3.12;100.00;96991.06;5051211;28;20048;-67
2024/02/06 09:12:51;;;;;;;2.10;1.40;;;;;;;3.22;100.00;96995.06;5050377;28;20049;-66
2024/02/06 09:15:17;;;;;;;2.20;1.60;;;;;;;3.27;100.00;97002.41;5052004;28;20117;-66
2024/02/06 09:17:43;;;;;;;3.87;1.50;;;;;;;3.13;100.00;96998.75;5053265;28;20122;-66
2024/02/06 09:20:12;;;;;;;2.17;1.40;;;;;;;3.15;100.00;96999.38;5053298;28;20495;-66
2024/02/06 09:22:39;;;;;;;3.40;1.60;;;;;;;3.09;100.00;97000.06;5053493;28;20055;-67
2024/02/06 09:25:06;;;;;;;1.87;1.40;;;;;;;3.08;100.00;97006.31;5035708;28;20056;-67
2024/02/06 09:27:32;;;;;;;1.50;1.40;;;;;;;3.18;100.00;97014.75;5035963;28;20041;-67
2024/02/06 09:29:58;;;;;;;1.97;1.60;;;;;;;3.19;100.00;97018.19;5052686;28;20041;-67
2024/02/06 09:32:25;;;;;;;6.13;1.63;;;;;;;3.15;100.00;97022.97;5034203;28;20403;-68
2024/02/06 09:34:51;;;;;;;4.07;1.40;;;;;;;3.21;100.00;97017.03;5017976;28;20049;-67
2024/02/06 09:37:17;;;;;;;3.27;1.47;;;;;;;3.06;100.00;97016.16;5034018;28;20055;-67
2024/02/06 09:39:43;;;;;;;2.13;1.70;;;;;;;3.00;100.00;97018.66;5034253;28;20045;-67
2024/02/06 09:42:10;;;;;;;1.40;1.27;;;;;;;3.06;100.00;97021.41;5017668;28;20135;-67
2024/02/06 09:44:36;;;;;;;5.67;1.73;;;;;;;3.05;100.00;97032.06;5051630;28;20471;-67
2024/02/06 09:47:02;;;;;;;1.40;1.20;;;;;;;3.14;100.00;97025.75;5051684;28;20143;-68
2024/02/06 09:49:28;;;;;;;4.33;1.50;;;;;;;3.05;100.00;97046.00;5052051;28;20522;-67
2024/02/06 09:51:56;;;;;;;3.63;1.43;;;;;;;3.10;100.00;97034.97;5018397;28;20091;-67
2024/02/06 09:54:25;;;;;;;1.50;1.40;;;;;;;3.10;100.00;97040.22;5034260;28;20460;-67
2024/02/06 09:56:57;;;;;;;1.50;1.40;;;;;;;3.19;100.00;97041.78;5001109;28;20053;-68
2024/02/06 09:59:26;;;;;;;1.87;1.30;;;;;;;3.25;100.00;97034.06;5033775;28;20036;-70
2024/02/06 10:01:52;;;;;;;1.67;1.43;;;;;;;3.31;100.00;97041.22;5033701;28;20044;-71
2024/02/06 10:04:21;;;;;;;2.13;1.33;;;;;;;3.43;100.00;97052.91;5017478;28;20045;-71
2024/02/06 10:06:47;;;;;;;1.93;1.67;;;;;;;3.43;100.00;97050.28;5033471;28;20658;-69
2024/02/06 10:09:15;;;;;;;3.90;1.60;;;;;;;3.42;100.00;97053.91;5033387;28;20041;-69
2024/02/06 10:11:41;;;;;;;1.40;1.20;;;;;;;3.42;100.00;97059.16;5049157;28;20155;-69
2024/02/06 10:14:06;;;;;;;1.80;1.40;;;;;;;3.36;100.00;97052.00;5050703;28;20432;-71
2024/02/06 10:16:32;;;;;;;1.40;1.30;;;;;;;3.44;100.00;97059.78;5049709;28;20491;-70
2024/02/06 10:18:59;;;;;;;2.10;1.13;;;;;;;3.43;100.00;97058.16;5050404;28;20041;-70
2024/02/06 10:21:30;;;;;;;1.40;1.20;;;;;;;3.35;100.00;97055.59;5033952;28;20044;-71
2024/02/06 10:24:00;;;;;;;;;;;;;;;3.47;100.00;97053.38;5034191;28;20048;-69
2024/02/06 10:26:28;;;;;;;2.60;1.73;;;;;;;3.07;100.00;97058.94;5033600;28;19917;-69
2024/02/06 10:29:06;;;;;;;2.93;1.30;;;;;;;3.09;100.00;97067.44;5012437;28;20117;-69
2024/02/06 10:31:32;;;;;;;2.80;1.93;;;;;;;2.83;100.00;97067.75;5011078;28;20139;-71
2024/02/06 10:34:11;;;;;;;2.97;1.80;;;;;;;2.93;100.00;97064.91;5027448;28;20502;-71
2024/02/06 10:36:39;;;;;;;2.87;1.33;;;;;;;2.95;100.00;97068.97;4993510;28;20145;-71
2024/02/06 10:39:06;;;;;;;1.40;1.30;;;;;;;2.83;100.00;97067.75;4993686;28;20045;-71
2024/02/06 10:41:33;;;;;;;1.63;1.30;;;;;;;2.92;100.00;97066.72;4994875;28;20082;-71
2024/02/06 10:43:59;;;;;;;2.70;1.90;;;;;;;2.96;100.00;97077.66;4993666;28;20066;-71
2024/02/06 10:46:25;;;;;;;3.07;1.30;;;;;;;2.99;100.00;97075.53;4978513;28;20057;-71
2024/02/06 10:49:01;;;;;;;1.73;1.40;;;;;;;3.16;100.00;97073.63;5011714;28;20057;-72
2024/02/06 10:51:27;;;;;;;1.83;1.30;;;;;;;3.15;100.00;97079.84;5028853;28;20460;-72
2024/02/06 10:53:53;;;;;;;2.40;1.53;;;;;;;3.11;100.00;97079.38;5028674;28;20049;-71
2024/02/06 10:56:19;;;;;;;1.50;1.37;;;;;;;3.27;100.00;97084.53;5028999;28;20037;-71
2024/02/06 10:59:01;;;;;;;2.00;1.43;;;;;;;3.11;100.00;97082.00;5013512;28;20045;-71
2024/02/06 11:01:36;;;;;;;2.93;1.60;;;;;;;3.00;100.00;97079.78;5050904;28;20460;-72
2024/02/06 11:04:05;;;;;;;1.50;1.27;;;;;;;3.01;100.00;97084.00;5050659;28;20059;-71
2024/02/06 11:06:52;;;;;;;2.30;1.40;;;;;;;2.93;100.00;97093.75;5033519;28;20045;-71
2024/02/06 11:09:21;;;;;;;1.43;1.10;;;;;;;2.79;100.00;97092.69;5033547;28;20036;-71
2024/02/06 11:11:48;;;;;;;1.63;1.20;;;;;;;2.73;100.00;97090.75;5049929;28;20040;-71
2024/02/06 11:14:14;;;;;;;5.13;1.50;;;;;;;2.90;100.00;97086.22;5039815;28;20068;-71
2024/02/06 11:16:47;;;;;;;3.67;1.77;;;;;;;2.93;100.00;97093.75;5058920;28;20391;-71
2024/02/06 11:19:35;;;;;;;2.70;1.60;;;;;;;2.93;100.00;97091.94;5039977;28;20064;-71
2024/02/06 11:22:09;;;;;;;1.83;1.50;;;;;;;2.89;100.00;97100.34;5051274;28;20049;-71
2024/02/06 11:24:35;;;;;;;3.17;1.50;;;;;;;2.98;100.00;97096.69;5017795;28;20135;-72
2024/02/06 11:27:02;;;;;;;1.63;1.30;;;;;;;3.12;100.00;97101.19;5032977;28;20060;-71
2024/02/06 11:29:29;;;;;;;2.27;1.20;;;;;;;2.99;100.00;97104.38;5033743;28;20045;-72
2024/02/06 11:31:55;;;;;;;2.73;1.30;;;;;;;2.92;100.00;97111.25;5033497;28;20402;-71
2024/02/06 11:34:22;;;;;;;2.17;1.70;;;;;;;2.88;100.00;97104.75;5023525;28;20133;-69